Etusivu
METAR-TAF:

METAR-TAF

Lentoasemat :

Houma-Terrebonne Airport

Houma, Louisiana, Yhdysvallat

Leveyspiiri: 29-34N, Pituuspiiri: 090-40W, korkeus merenpinnasta: 3 m

Tämänhetkinen sää

Tämä raportti tehtiin 24 minuuttia sitten, kello 12.47 UTC
Tuuli 3 kn pohjoisen/luoteesta
Lämpötila 27°C
Kosteus 89%
Ilmanpaine 1015 hPa
Näkyvyys: 11.3 km
selkeää

METAR: KHUM 151247Z 34003KT 7SM CLR 27/25 A2996

Aika: 08:11 (13:11 UTC)

Sääennuste

Tämä raportti tehtiin 1 tunti ja 51 minuuttia sitten, kello 11.20 UTC
Ennuste voimassa 15. päivästä klo 12 UTC - 16. päivään klo 12 UTC
Tuuli 4 kn eri suunnista
Näkyvyys: 10 km
Muutamia pilviä 5000 ft:n korkeudessa
From 15. päivästä klo 1800 UTC
Tuuli 7 kn idästä
Näkyvyys: 10 km
Muutamia pilviä 6000 ft:n korkeudessa
From 16. päivästä klo 0100 UTC
Tuuli 5 kn kaakosta
Näkyvyys: 10 km
Muutamia pilviä 5000 ft:n korkeudessa

TAF: KHUM 151120Z 1512/1612 VRB04KT P6SM FEW050 FM151800 09007KT P6SM FEW060 FM160100 13005KT P6SM FEW050

Säähavainnot ja -ennusteet yli 4000 lentoasemalta (METAR- ja TAF-raportit).

Käytössä olevat sääasemat on merkitty karttaan keltaisilla ja punaisilla pisteillä.

Aseta hiiri pisteen päälle nähdäksesi sääaseman nimen.

Klikkaa sitten nähdäksesi säähavainnot ja -ennusteet.

Kartan vaihtaminen: klikkaa mustalla rastilla varustettuja vihreitä pisteitä, niin voit zoomata sisään; viivalla varustettua vihreää pistettä, niin voit zoomata ulos tai vihreitä nuolia, niin pääset viereisille kartoille.


METAR-TAF: